This is the latest recevied weather packets stored in our database for station/object F4CYQ-10. If no packets are shown the sender has not sent any weather packets the latest 10 day(s).
| Time | Temp. | Humidity | Pressure | Rain* | Wind** | Luminosity | Snow |
|---|---|---|---|---|---|---|---|
| 1777674439 | 20° C | 58% | 1019.5 hPa | - | - | - | - |
| 1777673537 | 20.56° C | 57% | 1019.6 hPa | - | - | - | - |
| 1777672635 | 20.56° C | 57% | 1019.6 hPa | - | - | - | - |
| 1777672090 | 22.22° C | 58% | 1019.6 hPa | - | - | - | - |
| 1777671189 | 21.67° C | 57% | 1019.5 hPa | - | - | - | - |
| 1777670287 | 22.22° C | 57% | 1019.5 hPa | - | - | - | - |
| 1777670004 | 22.22° C | 57% | 1019.5 hPa | - | - | - | - |
| 1777669385 | 22.22° C | 57% | 1019.5 hPa | - | - | - | - |
| 1777669093 | 21.11° C | 57% | 1019.5 hPa | - | - | - | - |
| 1777668192 | 21.11° C | 57% | 1019.6 hPa | - | - | - | - |
| 1777667291 | 21.11° C | 57% | 1019.5 hPa | - | - | - | - |
| 1777666390 | -5° C | 100% | 4.8 hPa | - | - | - | - |
| 1777666046 | 20.56° C | 56% | 1019.4 hPa | - | - | - | - |
| 1777665145 | 20.56° C | 57% | 1019.3 hPa | - | - | - | - |
| 1777664244 | 20.56° C | 57% | 1019.3 hPa | - | - | - | - |
| 1777663343 | 22.22° C | 56% | 1019.3 hPa | - | - | - | - |
| 1777663038 | 21.67° C | 56% | 1019.3 hPa | - | - | - | - |
| 1777662137 | 21.67° C | 56% | 1019.2 hPa | - | - | - | - |
| 1777661235 | 21.67° C | 56% | 1019.1 hPa | - | - | - | - |
| 1777660334 | 22.78° C | 56% | 1019.1 hPa | - | - | - | - |
| 1777659721 | 22.78° C | 56% | 1019.1 hPa | - | - | - | - |
| 1777658820 | -5° C | 100% | 4.8 hPa | - | - | - | - |
| 1777658498 | 21.67° C | 56% | 1019.2 hPa | - | - | - | - |
| 1777657597 | 22.78° C | 55% | 1019.1 hPa | - | - | - | - |
| 1777656696 | 21.67° C | 56% | 1019.2 hPa | - | - | - | - |
* Rain since midnight (hover to see other rain measurements)
** Current wind speed in m/s (hover to see current wind gust speed)